Time;durP1;ratioP1;P1;durP2;ratioP2;P2;SDS_P1;SDS_P2;PMS_P1;PMS_P2;Temp;Humidity;BMP_temperature;BMP_pressure;BME280_temperature;BME280_humidity;BME280_pressure;Samples;Min_cycle;Max_cycle;Signal;HPM_P1;HPM_P2
2021/04/18 00:00:52;;;;;;;;;56.40;43.00;;;;;13.16;50.82;99035.22;6207461;28;125326;-65
2021/04/18 00:03:54;;;;;;;;;53.80;42.00;;;;;13.20;50.87;99033.69;6188592;28;126419;-66
2021/04/18 00:06:56;;;;;;;;;52.60;41.60;;;;;13.18;50.80;99035.00;6192934;28;126780;-66
2021/04/18 00:09:59;;;;;;;;;55.80;44.80;;;;;13.16;50.70;99032.53;6206622;28;126112;-66
2021/04/18 00:13:05;;;;;;;;;56.60;41.40;;;;;13.18;50.60;99033.13;6207907;28;127014;-66
2021/04/18 00:16:07;;;;;;;;;57.20;44.00;;;;;13.17;50.74;99027.94;6190280;28;126398;-66
2021/04/18 00:19:09;;;;;;;;;59.00;45.75;;;;;13.14;50.91;99021.13;6203602;28;124958;-66
2021/04/18 00:22:11;;;;;;;;;51.40;39.00;;;;;13.13;50.62;99032.19;6211065;28;127512;-66
2021/04/18 00:25:17;;;;;;;;;56.00;41.00;;;;;13.08;50.96;99032.84;6210894;28;124988;-66
2021/04/18 00:28:25;;;;;;;;;51.00;42.00;;;;;13.05;51.00;99038.72;6211326;28;126691;-66
2021/04/18 00:31:27;;;;;;;;;51.60;41.60;;;;;13.03;51.80;99032.72;6210763;28;127279;-66
2021/04/18 00:34:30;;;;;;;;;57.60;44.00;;;;;12.97;51.20;99025.53;6199766;28;125849;-66
2021/04/18 00:37:32;;;;;;;;;52.80;41.20;;;;;13.00;51.12;99019.63;6210631;28;124169;-66
2021/04/18 00:40:34;;;;;;;;;50.80;40.00;;;;;12.93;51.35;99016.25;6207665;28;127125;-66
2021/04/18 00:43:41;;;;;;;;;51.75;41.75;;;;;12.98;51.20;99022.59;6207736;28;125229;-66
2021/04/18 00:46:43;;;;;;;;;56.00;44.00;;;;;12.94;51.17;99016.00;6207495;28;124638;-65
2021/04/18 00:49:46;;;;;;;;;54.00;41.00;;;;;12.93;51.31;99018.94;6210595;28;126241;-65
2021/04/18 00:52:49;;;;;;;;;55.00;43.00;;;;;12.91;51.28;99016.47;6201213;28;126147;-65
2021/04/18 00:55:51;;;;;;;;;54.20;41.60;;;;;13.01;51.04;99018.59;6201187;28;125296;-65
2021/04/18 00:58:54;;;;;;;;;52.00;42.25;;;;;13.08;51.10;99023.91;6184180;28;125150;-65
2021/04/18 01:01:57;;;;;;;;;53.25;40.75;;;;;13.05;50.97;99030.59;6206195;28;126264;-65
2021/04/18 01:04:59;;;;;;;;;55.00;43.60;;;;;12.94;51.01;99007.06;6201955;28;126294;-65
2021/04/18 01:08:03;;;;;;;;;52.25;40.00;;;;;13.06;50.96;99021.41;6201825;28;126999;-65
2021/04/18 01:11:05;;;;;;;;;54.50;43.00;;;;;13.09;50.93;99017.44;6206837;28;127224;-65
2021/04/18 01:14:08;;;;;;;;;56.25;43.25;;;;;13.09;50.88;99022.84;6201368;28;126238;-65
2021/04/18 01:17:10;;;;;;;;;57.00;43.80;;;;;13.08;50.98;99013.06;6187513;28;126151;-65
2021/04/18 01:20:17;;;;;;;;;53.75;41.25;;;;;13.10;50.97;99016.34;6208132;28;126737;-65
2021/04/18 01:23:20;;;;;;;;;55.20;43.20;;;;;13.05;51.08;99010.84;6203672;28;124803;-65
2021/04/18 01:26:30;;;;;;;;;55.00;43.20;;;;;13.05;51.08;99019.75;6187429;28;127218;-65
2021/04/18 01:29:33;;;;;;;;;56.40;42.00;;;;;13.05;51.11;99013.56;6204363;28;126120;-64
2021/04/18 01:32:35;;;;;;;;;54.20;42.00;;;;;12.94;51.12;99005.19;6208716;28;125275;-65
2021/04/18 01:35:38;;;;;;;;;52.00;40.00;;;;;13.06;50.85;99016.00;6205668;28;125121;-65
2021/04/18 01:38:41;;;;;;;;;54.00;42.00;;;;;13.02;50.80;99006.72;6194701;28;126555;-65
2021/04/18 01:41:44;;;;;;;;;52.80;42.20;;;;;13.06;51.16;99015.19;6192873;28;127262;-65
2021/04/18 01:44:46;;;;;;;;;57.00;44.20;;;;;13.07;51.10;99014.97;6199944;28;124647;-65
2021/04/18 01:47:49;;;;;;;;;56.00;43.00;;;;;13.10;50.85;99013.66;6198429;28;127376;-65
2021/04/18 01:50:52;;;;;;;;;56.00;43.00;;;;;13.00;51.06;99015.06;6187206;28;125089;-65
2021/04/18 01:53:58;;;;;;;;;56.00;43.75;;;;;12.95;51.17;99012.22;6189509;28;125617;-65
2021/04/18 01:57:01;;;;;;;;;56.80;43.20;;;;;12.90;51.43;99014.00;6207082;28;97203;-65
2021/04/18 02:00:09;;;;;;;;;55.60;43.00;;;;;12.79;51.54;99012.94;6205313;28;126168;-65
2021/04/18 02:03:15;;;;;;;;;57.80;44.00;;;;;12.78;51.69;99007.75;6203310;28;126634;-65
2021/04/18 02:06:19;;;;;;;;;53.80;40.00;;;;;12.82;51.62;99006.22;6204963;28;125966;-65
2021/04/18 02:09:37;;;;;;;;;54.20;41.00;;;;;12.83;51.27;99002.47;6198949;28;125982;-65
2021/04/18 02:12:42;;;;;;;;;56.80;43.80;;;;;12.88;51.43;99014.25;6199589;28;126018;-65
2021/04/18 02:15:46;;;;;;;;;56.75;43.25;;;;;12.91;51.41;99007.53;6184835;28;125892;-65
2021/04/18 02:18:51;;;;;;;;;49.00;39.60;;;;;12.92;51.32;99001.06;6184734;28;124949;-65
2021/04/18 02:21:53;;;;;;;;;53.00;41.60;;;;;12.96;51.17;99000.34;6197450;28;128413;-65
2021/04/18 02:24:56;;;;;;;;;51.60;39.00;;;;;12.95;51.00;98997.91;6185525;28;125393;-65
2021/04/18 02:27:59;;;;;;;;;52.60;41.00;;;;;12.95;51.15;98995.19;6199975;28;126308;-65
2021/04/18 02:31:10;;;;;;;;;54.50;42.00;;;;;13.02;51.08;98998.59;6192028;28;125974;-65
2021/04/18 02:34:16;;;;;;;;;51.20;39.40;;;;;12.95;51.01;98987.06;6200417;28;126435;-65
2021/04/18 02:37:19;;;;;;;;;51.60;40.00;;;;;13.03;50.90;98997.53;6204834;28;127567;-65
2021/04/18 02:40:23;;;;;;;;;53.80;43.40;;;;;13.01;51.07;98995.06;6187725;28;125082;-65
2021/04/18 02:43:26;;;;;;;;;53.50;40.25;;;;;13.03;50.85;98990.25;6206128;28;127297;-65
2021/04/18 02:46:30;;;;;;;;;55.00;42.20;;;;;13.04;50.88;98993.78;6199773;28;126553;-65
2021/04/18 02:49:34;;;;;;;;;56.00;42.60;;;;;13.03;51.01;98997.53;6196065;28;126164;-65
2021/04/18 02:52:37;;;;;;;;;52.20;41.00;;;;;12.99;51.26;98989.06;6202428;28;126407;-65
2021/04/18 02:55:41;;;;;;;;;55.80;43.00;;;;;12.94;51.26;98983.53;6199940;28;127959;-65
2021/04/18 02:59:11;;;;;;;;;56.00;42.00;;;;;12.93;51.26;98979.19;6205697;28;124740;-66
2021/04/18 03:02:13;;;;;;;;;53.40;41.80;;;;;13.01;51.04;98978.81;6203127;28;126271;-66
2021/04/18 03:05:21;;;;;;;;;57.50;44.50;;;;;13.05;51.01;98971.03;6210262;28;126432;-66
2021/04/18 03:08:32;;;;;;;;;54.80;43.20;;;;;13.11;50.87;98970.16;6204261;28;125469;-66
2021/04/18 03:11:36;;;;;;;;;56.20;43.00;;;;;13.10;50.93;98973.03;6201716;28;125958;-66
2021/04/18 03:14:50;;;;;;;;;54.00;43.60;;;;;12.99;50.99;98944.94;6202132;28;125829;-66
2021/04/18 03:17:56;;;;;;;;;61.60;46.00;;;;;13.07;50.91;98952.69;6194996;28;125879;-66
2021/04/18 03:21:00;;;;;;;;;59.33;43.00;;;;;13.01;51.08;98962.59;6201472;28;126049;-65
2021/04/18 03:24:07;;;;;;;;;55.00;43.00;;;;;12.99;51.49;98955.78;6211003;28;126268;-65
2021/04/18 03:27:11;;;;;;;;;58.00;44.40;;;;;12.99;51.29;98961.19;6210457;28;126035;-65
2021/04/18 03:30:20;;;;;;;;;56.00;41.00;;;;;12.97;51.41;98958.69;6204322;28;126404;-65
2021/04/18 03:33:29;;;;;;;;;57.40;43.40;;;;;12.97;51.25;98960.59;6206136;28;125471;-66
2021/04/18 03:36:41;;;;;;;;;58.40;44.00;;;;;13.00;51.27;98965.50;6199914;28;126198;-66
2021/04/18 03:39:54;;;;;;;;;56.60;44.00;;;;;13.00;51.43;98966.34;6202429;28;125576;-66
2021/04/18 03:42:58;;;;;;;;;55.75;43.00;;;;;12.99;51.38;98967.44;6186941;28;124325;-66
2021/04/18 03:46:00;;;;;;;;;53.40;39.40;;;;;12.95;51.41;98963.53;6192311;28;123147;-66
2021/04/18 03:49:13;;;;;;;;;51.60;41.00;;;;;12.95;51.34;98974.34;6206908;28;127965;-66
2021/04/18 03:52:32;;;;;;;;;57.40;44.00;;;;;12.95;51.52;98970.84;6206120;28;126783;-66
2021/04/18 03:55:35;;;;;;;;;56.00;43.00;;;;;12.96;51.52;98970.59;6207252;28;125920;-66
2021/04/18 03:58:40;;;;;;;;;56.40;42.60;;;;;12.99;51.39;98969.31;6201163;28;124975;-66
2021/04/18 04:01:46;;;;;;;;;54.60;40.60;;;;;12.99;51.33;98969.31;6193795;28;125956;-65
2021/04/18 04:04:53;;;;;;;;;54.25;41.50;;;;;13.00;51.45;98971.75;6197108;28;125975;-66
2021/04/18 04:07:56;;;;;;;;;55.25;42.00;;;;;12.97;51.60;98968.69;6192890;28;127296;-66
2021/04/18 04:11:00;;;;;;;;;56.00;43.00;;;;;12.92;51.50;98974.00;6202476;28;126032;-66
2021/04/18 04:14:06;;;;;;;;;60.00;43.00;;;;;12.90;51.51;98973.44;6183490;28;125929;-66
2021/04/18 04:17:14;;;;;;;;;54.40;43.00;;;;;12.91;51.52;98978.59;6190487;28;125307;-66
2021/04/18 04:20:42;;;;;;;;;56.40;43.40;;;;;12.92;51.26;98968.59;6191409;28;125724;-65
2021/04/18 04:24:08;;;;;;;;;54.60;43.00;;;;;12.87;51.60;98976.59;6194904;28;126073;-65
2021/04/18 04:27:11;;;;;;;;;55.60;43.00;;;;;12.80;51.67;98974.00;6196483;28;127245;-66
2021/04/18 04:30:15;;;;;;;;;54.20;42.00;;;;;12.75;52.02;98971.19;6196696;28;125383;-65
2021/04/18 04:33:17;;;;;;;;;55.20;44.20;;;;;12.61;52.12;98975.13;6200891;28;126192;-66
2021/04/18 04:36:21;;;;;;;;;56.40;44.00;;;;;12.51;52.43;98988.41;6205805;28;126223;-66
2021/04/18 04:39:23;;;;;;;;;58.00;45.00;;;;;12.56;52.37;98975.00;6197096;28;126045;-65
2021/04/18 04:42:25;;;;;;;;;58.60;45.00;;;;;12.59;52.41;98971.84;6194282;28;127513;-65
2021/04/18 04:45:28;;;;;;;;;60.80;43.40;;;;;12.62;52.10;98978.66;6208797;28;125152;-66
2021/04/18 04:48:31;;;;;;;;;55.60;41.00;;;;;12.68;52.01;98973.16;6205589;28;127298;-66
2021/04/18 04:51:33;;;;;;;;;58.00;42.00;;;;;12.74;51.99;98976.81;6201192;28;125018;-66
2021/04/18 04:54:36;;;;;;;;;59.60;43.60;;;;;12.67;52.02;98976.09;6198675;28;126976;-66
2021/04/18 04:57:38;;;;;;;;;53.00;42.00;;;;;12.70;52.29;98972.94;6208714;28;126342;-66
2021/04/18 05:00:41;;;;;;;;;57.00;43.00;;;;;12.70;51.95;98972.94;6205028;28;126473;-66
2021/04/18 05:03:43;;;;;;;;;54.20;42.60;;;;;12.78;51.78;98975.28;6198920;28;127212;-66
2021/04/18 05:06:47;;;;;;;;;51.60;40.00;;;;;12.79;52.00;98972.34;6206952;28;126223;-66
2021/04/18 05:09:49;;;;;;;;;51.20;41.40;;;;;12.81;51.72;98974.81;6205466;28;124177;-66
2021/04/18 05:12:51;;;;;;;;;52.00;42.50;;;;;12.88;51.69;98976.34;6190951;28;127798;-66
2021/04/18 05:15:54;;;;;;;;;54.40;41.80;;;;;12.93;51.85;98981.88;6185406;28;123109;-66
2021/04/18 05:18:56;;;;;;;;;54.80;41.00;;;;;12.97;51.50;98982.25;6208084;28;124100;-66
2021/04/18 05:21:58;;;;;;;;;52.60;40.00;;;;;12.85;51.65;98954.38;6198960;28;127591;-66
2021/04/18 05:25:01;;;;;;;;;53.00;40.60;;;;;13.03;51.11;98984.00;6207093;28;127541;-66
2021/04/18 05:28:03;;;;;;;;;51.80;40.00;;;;;13.00;51.10;98988.00;6208591;28;126376;-66
2021/04/18 05:31:06;;;;;;;;;54.20;40.60;;;;;13.08;51.18;98986.00;6200841;28;126863;-66
2021/04/18 05:34:08;;;;;;;;;55.50;41.50;;;;;13.14;51.08;98990.53;6197926;28;127177;-66
2021/04/18 05:37:10;;;;;;;;;52.00;40.00;;;;;13.19;50.71;98993.34;6199622;28;126127;-66
2021/04/18 05:40:13;;;;;;;;;49.33;38.33;;;;;13.21;51.11;98988.50;6207160;28;126539;-66
2021/04/18 05:43:15;;;;;;;;;46.25;36.25;;;;;13.33;50.58;98978.50;6199769;28;126232;-66
2021/04/18 05:46:18;;;;;;;;;45.60;37.40;;;;;13.22;50.50;98982.88;6195544;28;127186;-66
2021/04/18 05:49:20;;;;;;;;;52.00;39.00;;;;;13.29;51.05;98990.88;6201927;28;127016;-66
2021/04/18 05:52:23;;;;;;;;;47.25;36.00;;;;;13.33;50.92;98992.03;6208736;28;126395;-66
2021/04/18 05:55:25;;;;;;;;;49.00;37.75;;;;;13.43;51.03;98987.69;6209614;28;125182;-66
2021/04/18 05:58:28;;;;;;;;;48.50;36.50;;;;;13.52;50.58;98998.97;6209443;28;124816;-66
2021/04/18 06:01:32;;;;;;;;;41.00;33.00;;;;;13.56;50.34;98996.59;6208822;28;126762;-66
2021/04/18 06:04:35;;;;;;;;;39.75;34.00;;;;;13.60;50.39;98993.16;6205961;28;126145;-66
2021/04/18 06:07:38;;;;;;;;;38.75;32.00;;;;;13.69;49.68;98994.44;6209321;28;125163;-66
2021/04/18 06:10:40;;;;;;;;;39.67;33.00;;;;;13.83;49.42;98998.53;6208743;28;125633;-66
2021/04/18 06:13:43;;;;;;;;;40.00;31.50;;;;;13.78;48.77;98994.91;6206219;28;126358;-66
2021/04/18 06:16:46;;;;;;;;;35.00;31.00;;;;;13.84;49.30;99000.19;6207111;28;125564;-66
2021/04/18 06:19:48;;;;;;;;;33.80;30.00;;;;;14.00;49.49;99011.34;6209151;28;127365;-66
2021/04/18 06:22:51;;;;;;;;;38.20;30.60;;;;;14.17;49.73;99009.53;6201368;28;126117;-66
2021/04/18 06:25:53;;;;;;;;;35.50;30.50;;;;;14.24;48.65;99007.47;6204122;28;127305;-66
2021/04/18 06:28:55;;;;;;;;;39.60;33.00;;;;;14.33;48.09;99006.00;6205694;28;126148;-66
2021/04/18 06:31:58;;;;;;;;;38.25;30.25;;;;;14.39;48.32;99007.78;6206019;28;125293;-66
2021/04/18 06:35:01;;;;;;;;;42.75;34.00;;;;;14.47;48.03;99003.84;6206033;28;126272;-66
2021/04/18 06:38:05;;;;;;;;;39.00;32.40;;;;;14.54;48.53;99012.66;6202603;28;125564;-66
2021/04/18 06:41:08;;;;;;;;;36.00;31.00;;;;;14.60;47.82;99017.13;6212684;28;128188;-66
2021/04/18 06:44:11;;;;;;;;;39.25;32.75;;;;;14.50;47.84;99008.81;6209416;28;124836;-66
2021/04/18 06:47:15;;;;;;;;;33.00;29.67;;;;;14.49;47.34;99007.97;6196125;28;126286;-66
2021/04/18 06:50:19;;;;;;;;;37.00;30.00;;;;;14.52;47.43;99012.91;6210744;28;126149;-66
2021/04/18 06:53:22;;;;;;;;;37.25;29.25;;;;;14.37;47.73;98979.28;6210211;28;124791;-66
2021/04/18 06:56:26;;;;;;;;;38.00;32.00;;;;;14.62;47.59;99012.25;6212278;28;124795;-66
2021/04/18 06:59:36;;;;;;;;;41.40;32.80;;;;;14.63;47.57;99011.19;6212454;28;125804;-66
2021/04/18 07:02:39;;;;;;;;;38.00;32.00;;;;;14.67;47.64;99007.75;6203768;28;126045;-66
2021/04/18 07:05:45;;;;;;;;;37.00;32.00;;;;;14.69;47.44;99019.19;6211147;28;124815;-66
2021/04/18 07:08:57;;;;;;;;;33.40;30.00;;;;;14.60;47.03;99020.66;6210897;28;122874;-66
2021/04/18 07:12:05;;;;;;;;;41.20;32.80;;;;;14.60;47.04;99020.66;6196075;28;125233;-65
2021/04/18 07:15:09;;;;;;;;;35.80;28.20;;;;;14.39;47.26;99025.94;6211354;28;124914;-65
2021/04/18 07:18:14;;;;;;;;;40.00;34.00;;;;;14.40;47.37;99025.72;6212133;28;126132;-66
2021/04/18 07:21:17;;;;;;;;;38.00;32.00;;;;;14.12;47.42;99026.47;6213096;28;124562;-65
2021/04/18 07:24:20;;;;;;;;;38.00;32.00;;;;;14.05;47.73;99027.69;6211422;28;125189;-65
2021/04/18 07:27:23;;;;;;;;;35.00;30.00;;;;;13.93;47.66;99029.63;6211539;28;124121;-65
2021/04/18 07:30:47;;;;;;;;;35.25;31.00;;;;;13.55;48.23;99003.06;6211447;28;124798;-65
2021/04/18 07:34:06;;;;;;;;;41.50;34.50;;;;;13.85;48.95;99034.34;6195768;28;125727;-65
2021/04/18 07:37:11;;;;;;;;;38.60;31.00;;;;;13.78;48.73;99030.94;6211280;28;127035;-65
2021/04/18 07:40:13;;;;;;;;;38.75;33.50;;;;;13.85;48.67;99031.63;6211344;28;126083;-65
2021/04/18 07:43:18;;;;;;;;;38.00;31.50;;;;;14.04;48.72;99028.75;6212564;28;124646;-65
2021/04/18 07:46:21;;;;;;;;;35.00;30.00;;;;;13.94;47.85;99040.22;6210947;28;126443;-65
2021/04/18 07:49:24;;;;;;;;;41.60;33.00;;;;;14.15;48.38;99027.91;6212166;28;126023;-66
2021/04/18 07:52:28;;;;;;;;;37.60;32.00;;;;;14.25;47.74;98998.28;6210191;28;126962;-66
2021/04/18 07:55:31;;;;;;;;;37.60;32.00;;;;;14.33;46.89;99030.41;6196886;28;127566;-66
2021/04/18 07:58:36;;;;;;;;;38.40;32.00;;;;;14.48;47.47;99038.03;6205036;28;127832;-66
2021/04/18 08:01:38;;;;;;;;;40.50;31.25;;;;;14.64;46.64;99032.66;6195138;28;125713;-66
2021/04/18 08:04:42;;;;;;;;;37.20;33.00;;;;;14.69;46.32;99030.03;6198774;28;126452;-66
2021/04/18 08:08:00;;;;;;;;;39.00;32.00;;;;;14.75;45.73;99022.81;6206639;28;124870;-66
2021/04/18 08:11:10;;;;;;;;;40.00;32.00;;;;;14.76;46.29;99005.44;6210795;28;124778;-65
2021/04/18 08:14:18;;;;;;;;;35.20;30.20;;;;;15.12;46.06;99018.53;6198636;28;123996;-65
2021/04/18 08:17:20;;;;;;;;;34.00;31.00;;;;;15.28;46.08;99021.50;6208518;28;127331;-65
2021/04/18 08:20:32;;;;;;;;;34.00;30.00;;;;;15.47;44.66;99023.69;6204238;28;127407;-66
2021/04/18 08:23:39;;;;;;;;;33.40;28.20;;;;;15.40;44.03;99025.75;6196786;28;126262;-66
2021/04/18 08:26:59;;;;;;;;;33.60;30.00;;;;;15.51;44.52;99030.28;6199112;28;124763;-66
2021/04/18 08:30:04;;;;;;;;;35.00;30.00;;;;;15.63;43.67;99013.88;6206437;28;124927;-65
2021/04/18 08:33:07;;;;;;;;;35.00;29.40;;;;;15.86;44.14;99024.53;6194347;28;124057;-65
2021/04/18 08:36:13;;;;;;;;;29.00;27.00;;;;;16.14;42.77;99020.78;6191000;28;124979;-65
2021/04/18 08:39:25;;;;;;;;;35.00;30.00;;;;;16.46;43.19;99018.16;6195075;28;127024;-66
2021/04/18 08:42:29;;;;;;;;;32.20;27.00;;;;;17.00;41.91;99004.50;6197263;28;125791;-65
2021/04/18 08:45:47;;;;;;;;;28.50;26.50;;;;;17.62;40.21;99015.59;6195151;28;124958;-66
2021/04/18 08:48:49;;;;;;;;;38.00;30.00;;;;;18.23;40.38;98999.50;6188267;28;124885;-66
2021/04/18 08:52:13;;;;;;;;;28.50;27.00;;;;;18.83;38.81;99004.25;6189987;28;125997;-66
2021/04/18 08:55:16;;;;;;;;;33.00;27.40;;;;;19.28;37.24;99009.72;6194543;28;124353;-65
2021/04/18 08:58:35;;;;;;;;;24.00;22.60;;;;;19.15;34.15;98985.69;6184200;28;126223;-66
2021/04/18 09:01:38;;;;;;;;;23.00;22.00;;;;;19.24;36.29;98978.56;6190273;28;124843;-66
2021/04/18 09:04:42;;;;;;;;;29.40;25.00;;;;;19.43;35.55;98997.94;6200576;28;123824;-66
2021/04/18 09:07:45;;;;;;;;;29.80;25.20;;;;;19.38;34.98;98992.47;6199854;28;127719;-66
2021/04/18 09:11:02;;;;;;;;;32.00;28.80;;;;;19.22;35.70;98988.13;6200980;28;127653;-66
2021/04/18 09:14:05;;;;;;;;;25.00;24.00;;;;;19.15;35.97;98985.69;6199840;28;124794;-66
2021/04/18 09:17:16;;;;;;;;;28.00;27.00;;;;;19.10;35.46;98987.59;6200000;28;126102;-66
2021/04/18 09:20:19;;;;;;;;;25.60;24.60;;;;;18.94;34.23;98984.88;6193473;28;124871;-67
2021/04/18 09:23:22;;;;;;;;;28.00;24.33;;;;;18.84;35.13;98987.59;6189144;28;126196;-67
2021/04/18 09:26:24;;;;;;;;;27.60;25.60;;;;;19.08;35.98;98976.09;6187004;28;126811;-66
2021/04/18 09:29:28;;;;;;;;;27.00;23.50;;;;;19.35;34.81;98984.84;6194399;28;125930;-67
2021/04/18 09:32:33;;;;;;;;;23.60;21.60;;;;;19.28;33.66;98978.81;6186745;28;125920;-66
2021/04/18 09:35:36;;;;;;;;;23.80;21.80;;;;;18.98;33.45;98972.28;6194215;28;123930;-65
2021/04/18 09:38:39;;;;;;;;;29.60;24.80;;;;;18.83;35.17;98966.84;6198282;28;126843;-65
2021/04/18 09:41:41;;;;;;;;;26.80;21.60;;;;;18.75;35.31;98978.31;6204507;28;127693;-68
2021/04/18 09:44:45;;;;;;;;;25.25;23.00;;;;;18.73;35.30;98974.19;6198115;28;125179;-66
2021/04/18 09:47:49;;;;;;;;;28.40;24.20;;;;;18.78;34.59;98968.75;6209058;28;127045;-66
2021/04/18 09:51:02;;;;;;;;;25.00;21.00;;;;;18.69;35.17;98979.41;6206797;28;124762;-65
2021/04/18 09:54:05;;;;;;;;;21.00;20.00;;;;;18.82;34.87;98964.38;6205588;28;124954;-66
2021/04/18 09:57:15;;;;;;;;;24.50;20.50;;;;;18.89;34.12;98954.00;6205119;28;127257;-65
2021/04/18 10:00:23;;;;;;;;;20.60;20.00;;;;;18.91;33.69;98970.94;6187062;28;127297;-67
2021/04/18 10:03:34;;;;;;;;;22.40;19.40;;;;;18.89;33.08;98964.91;6193057;28;124745;-65
2021/04/18 10:06:44;;;;;;;;;22.60;19.00;;;;;19.21;33.91;98968.16;6208677;28;126813;-65
2021/04/18 10:09:52;;;;;;;;;27.40;24.40;;;;;19.77;33.64;98968.88;6206350;28;124893;-65
2021/04/18 10:12:55;;;;;;;;;22.20;19.80;;;;;20.35;33.39;98966.41;6208533;28;124744;-65
2021/04/18 10:15:57;;;;;;;;;22.25;20.00;;;;;20.58;31.83;98976.66;6208003;28;126271;-65
2021/04/18 10:19:06;;;;;;;;;19.60;16.60;;;;;20.53;31.33;98975.88;6205897;28;124674;-66
2021/04/18 10:22:10;;;;;;;;;21.50;20.50;;;;;20.30;31.46;98977.38;6206014;28;126381;-67
2021/04/18 10:25:15;;;;;;;;;21.00;19.00;;;;;19.88;32.31;98975.13;6192703;28;124496;-68
2021/04/18 10:28:18;;;;;;;;;20.60;19.00;;;;;19.73;32.29;98969.72;6188506;28;126228;-67
2021/04/18 10:31:23;;;;;;;;;21.80;18.80;;;;;19.55;33.03;98973.84;6204420;28;126725;-67
2021/04/18 10:35:23;;;;;;;;;25.50;23.25;;;;;19.40;32.98;98974.69;6198476;28;126799;-68
2021/04/18 10:38:25;;;;;;;;;25.40;22.60;;;;;19.35;34.11;98968.44;6194447;28;127757;-68
2021/04/18 10:41:28;;;;;;;;;28.40;25.40;;;;;19.22;34.13;98966.25;6188341;28;127272;-67
2021/04/18 10:44:30;;;;;;;;;25.60;23.00;;;;;19.03;34.43;98968.72;6184959;28;127404;-67
2021/04/18 10:47:33;;;;;;;;;24.75;22.25;;;;;18.93;34.87;98966.84;6188158;28;125642;-67
2021/04/18 10:50:36;;;;;;;;;25.40;23.00;;;;;18.77;35.42;98967.91;6189099;28;126263;-68
2021/04/18 10:53:38;;;;;;;;;22.40;19.00;;;;;18.74;35.08;98973.13;6203461;28;124337;-67
2021/04/18 10:56:42;;;;;;;;;23.60;22.00;;;;;18.69;35.23;98973.09;6201411;28;125980;-68
2021/04/18 10:59:44;;;;;;;;;28.40;23.00;;;;;18.65;35.08;98964.66;6185139;28;125372;-67
2021/04/18 11:02:46;;;;;;;;;27.00;25.00;;;;;18.48;34.88;98967.59;6183516;28;126246;-67
2021/04/18 11:05:50;;;;;;;;;24.80;21.80;;;;;18.29;35.47;98968.38;6194679;28;126327;-67
2021/04/18 11:08:52;;;;;;;;;27.00;24.00;;;;;18.22;35.84;98965.09;6199746;28;126890;-66
2021/04/18 11:11:55;;;;;;;;;24.00;21.80;;;;;18.16;36.11;98977.91;6203425;28;125411;-67
2021/04/18 11:14:58;;;;;;;;;23.80;20.80;;;;;18.13;35.46;98979.25;6199766;28;124929;-67
2021/04/18 11:18:00;;;;;;;;;25.25;22.00;;;;;17.95;35.84;98978.91;6197204;28;125918;-67
2021/04/18 11:21:03;;;;;;;;;27.00;22.60;;;;;17.92;36.10;98971.28;6197215;28;124823;-67
2021/04/18 11:24:06;;;;;;;;;31.40;26.40;;;;;17.81;36.85;98964.13;6202497;28;126240;-66
2021/04/18 11:27:09;;;;;;;;;30.00;24.40;;;;;17.87;36.43;98971.25;6194115;28;125014;-65
2021/04/18 11:30:14;;;;;;;;;27.60;25.00;;;;;17.87;36.91;98977.53;6195406;28;126248;-68
2021/04/18 11:33:16;;;;;;;;;28.00;23.20;;;;;17.89;36.50;98975.34;6187413;28;127340;-67
2021/04/18 11:36:18;;;;;;;;;27.80;23.40;;;;;17.92;36.59;98971.28;6198525;28;126097;-68
2021/04/18 11:39:20;;;;;;;;;31.40;27.00;;;;;17.74;36.24;98984.28;6204142;28;126386;-68
2021/04/18 11:42:33;;;;;;;;;34.00;30.00;;;;;17.81;36.49;98981.31;6200363;28;123622;-66
2021/04/18 11:45:46;;;;;;;;;33.50;30.00;;;;;17.86;37.19;98967.72;6194976;28;124361;-67
2021/04/18 11:48:48;;;;;;;;;30.80;28.00;;;;;17.79;36.33;98969.84;6188181;28;126276;-68
2021/04/18 11:51:51;;;;;;;;;35.00;29.00;;;;;17.73;37.16;98974.47;6191180;28;126580;-67
2021/04/18 11:54:53;;;;;;;;;33.00;29.00;;;;;17.67;37.25;98969.25;6188819;28;126389;-67
2021/04/18 11:57:56;;;;;;;;;38.00;30.00;;;;;17.77;37.52;98963.03;6188346;28;126358;-67
2021/04/18 12:00:59;;;;;;;;;31.00;28.20;;;;;17.81;36.26;98966.88;6194100;28;126109;-67
2021/04/18 12:04:01;;;;;;;;;35.00;30.00;;;;;17.82;36.75;98972.06;6176303;28;126191;-67
2021/04/18 12:07:04;;;;;;;;;30.20;26.60;;;;;17.90;37.35;98968.81;6196670;28;126859;-67
2021/04/18 12:10:08;;;;;;;;;36.50;32.00;;;;;18.05;36.89;98976.22;6200989;28;126721;-68
2021/04/18 12:13:11;;;;;;;;;36.60;30.00;;;;;18.16;36.47;98970.53;6185518;28;126024;-68
2021/04/18 12:16:14;;;;;;;;;35.00;30.20;;;;;18.02;36.15;98963.97;6195838;28;126219;-67
2021/04/18 12:19:17;;;;;;;;;36.20;30.00;;;;;17.77;36.02;98954.84;6196443;28;125451;-67
2021/04/18 12:22:19;;;;;;;;;32.80;28.80;;;;;17.65;36.54;98961.34;6202110;28;126667;-66
2021/04/18 12:25:22;;;;;;;;;38.00;30.00;;;;;17.66;37.30;98964.88;6201252;28;125011;-68
2021/04/18 12:28:26;;;;;;;;;39.00;32.00;;;;;17.72;37.58;98961.94;6199965;28;123892;-69
2021/04/18 12:31:28;;;;;;;;;35.00;30.00;;;;;17.87;37.42;98958.44;6197583;28;125918;-69
2021/04/18 12:34:31;;;;;;;;;30.60;26.60;;;;;17.97;35.54;98957.66;6198457;28;125224;-67
2021/04/18 12:37:34;;;;;;;;;29.60;28.00;;;;;18.07;36.14;98965.88;6190528;28;125300;-67
2021/04/18 12:40:36;;;;;;;;;31.50;29.25;;;;;18.11;35.98;98951.44;6192478;28;125166;-66
2021/04/18 12:43:39;;;;;;;;;30.60;28.00;;;;;18.08;35.65;98953.88;6190669;28;126416;-67
2021/04/18 12:46:43;;;;;;;;;32.40;27.40;;;;;18.17;35.68;98952.25;6191163;28;123817;-67
2021/04/18 12:49:48;;;;;;;;;36.00;30.00;;;;;18.21;36.33;98953.38;6179269;28;124833;-67
2021/04/18 12:52:50;;;;;;;;;33.50;29.00;;;;;18.28;35.94;98959.38;6193978;28;124637;-66
2021/04/18 12:55:52;;;;;;;;;30.67;28.67;;;;;18.37;36.31;98960.50;6195210;28;126461;-66
2021/04/18 12:58:55;;;;;;;;;30.00;28.00;;;;;18.36;35.60;98960.75;6200346;28;124924;-67
2021/04/18 13:01:58;;;;;;;;;32.25;27.25;;;;;18.18;35.93;98964.78;6185591;28;128082;-66
2021/04/18 13:05:01;;;;;;;;;31.20;28.80;;;;;18.14;35.93;98972.72;6187977;28;125837;-67
2021/04/18 13:08:04;;;;;;;;;30.20;27.20;;;;;18.03;36.20;98960.13;6187885;28;126025;-66
2021/04/18 13:11:06;;;;;;;;;29.50;28.00;;;;;18.07;36.74;98958.50;6195920;28;126844;-66
2021/04/18 13:14:09;;;;;;;;;31.00;28.50;;;;;18.01;36.19;98975.13;6201280;28;126385;-66
2021/04/18 13:17:11;;;;;;;;;32.00;28.00;;;;;17.96;36.77;98958.75;6195392;28;124078;-65
2021/04/18 13:20:14;;;;;;;;;33.60;29.00;;;;;17.96;37.14;98956.00;6188312;28;126941;-67
2021/04/18 13:23:17;;;;;;;;;31.00;28.00;;;;;18.05;36.80;98960.69;6185988;28;125102;-66
2021/04/18 13:26:20;;;;;;;;;32.75;29.75;;;;;18.13;36.65;98953.91;6185767;28;126307;-67
2021/04/18 13:29:23;;;;;;;;;27.25;24.25;;;;;18.09;36.56;98947.31;6187017;28;126493;-67
2021/04/18 13:32:25;;;;;;;;;32.40;29.40;;;;;17.98;36.37;98954.66;6197193;28;125389;-67
2021/04/18 13:35:27;;;;;;;;;30.50;28.50;;;;;17.92;36.53;98957.63;6187093;28;124370;-68
2021/04/18 13:38:29;;;;;;;;;32.67;28.67;;;;;17.90;36.47;98954.34;6193042;28;125065;-67
2021/04/18 13:41:32;;;;;;;;;30.60;27.60;;;;;18.02;37.07;98974.03;6199223;28;124342;-67
2021/04/18 13:44:35;;;;;;;;;29.60;25.00;;;;;17.92;36.50;98954.91;6201518;28;125996;-66
2021/04/18 13:47:39;;;;;;;;;31.00;28.60;;;;;17.92;36.85;98963.91;6189853;28;123115;-66
2021/04/18 13:50:42;;;;;;;;;33.60;30.00;;;;;18.01;36.73;98958.75;6200343;28;125916;-66
2021/04/18 13:53:44;;;;;;;;;30.75;28.00;;;;;17.98;37.21;98960.13;6196577;28;126108;-65
2021/04/18 13:56:47;;;;;;;;;34.80;30.40;;;;;17.95;37.42;98951.63;6193956;28;124457;-66
2021/04/18 13:59:50;;;;;;;;;35.00;29.00;;;;;17.96;36.76;98958.75;6196101;28;128228;-67